Big Bear Station Historical Data
Daily Summary for August 29, 2017 Units:  English    Metric   Both
« Previous Day
Next Day »
Daily Weekly Monthly Yearly Custom
  High: Low: Average:
Temperature: 82.8 °F 53.4 °F 65.5 °F
Dew Point: 58.2 °F 45.3 °F 50.3 °F
Humidity: 82 % 29 % 61 %
Wind Speed: 4.7 mph 0.0 mph 0.5 mph
Wind Gust: -999.0 mph - -
Wind:- - WNW
Pressure: 30.32 in 30.25 in -
Precipitation: 0.01 in    
Historical Graphs
 
 
Tabular Data for August 29, 2017
Time Temperature Dew Point Pressure Wind Wind Speed Wind Gust Humidity Rainfall Rate (Hourly)
00:14 57.9 °F 48.9 °F 30.30 in Calm   -999.0 mph 72 % 0 in
00:30 57.6 °F 49.0 °F 30.30 in Calm   -999.0 mph 73 % 0 in
00:45 57.2 °F 48.6 °F 30.30 in Calm   -999.0 mph 73 % 0 in
01:00 57.0 °F 48.4 °F 30.30 in Calm   -999.0 mph 73 % 0 in
01:15 56.8 °F 49.0 °F 30.30 in Calm   -999.0 mph 75 % 0 in
01:30 56.5 °F 49.4 °F 30.30 in Calm   -999.0 mph 77 % 0 in
01:46 56.1 °F 48.6 °F 30.30 in Calm   -999.0 mph 76 % 0 in
02:01 56.1 °F 48.6 °F 30.30 in Calm   -999.0 mph 76 % 0 in
02:16 55.9 °F 49.1 °F 30.30 in South 1.7 mph -999.0 mph 78 % 0 in
02:31 55.8 °F 49.4 °F 30.30 in Calm   -999.0 mph 79 % 0 in
02:47 55.6 °F 49.5 °F 30.30 in Calm   -999.0 mph 80 % 0 in
03:02 55.6 °F 50.2 °F 30.30 in Calm   -999.0 mph 82 % 0 in
03:17 55.6 °F 50.2 °F 30.30 in Calm   -999.0 mph 82 % 0 in
03:32 55.4 °F 49.0 °F 30.29 in Calm   -999.0 mph 79 % 0 in
03:47 55.4 °F 48.3 °F 30.29 in Calm   -999.0 mph 77 % 0 in
04:03 55.0 °F 48.6 °F 30.29 in Calm   -999.0 mph 79 % 0 in
04:18 54.7 °F 49.0 °F 30.29 in Calm   -999.0 mph 81 % 0 in
04:33 54.7 °F 49.3 °F 30.29 in Calm   -999.0 mph 82 % 0 in
05:03 54.1 °F 47.1 °F 30.29 in Calm   -999.0 mph 77 % 0 in
05:19 54.0 °F 47.3 °F 30.29 in Calm   -999.0 mph 78 % 0 in
05:34 53.6 °F 47.2 °F 30.29 in Calm   -999.0 mph 79 % 0 in
05:49 53.8 °F 47.1 °F 30.30 in Calm   -999.0 mph 78 % 0 in
06:04 53.8 °F 47.1 °F 30.30 in Calm   -999.0 mph 78 % 0 in
06:19 53.4 °F 47.4 °F 30.30 in Calm   -999.0 mph 80 % 0 in
06:35 53.6 °F 47.6 °F 30.30 in Calm   -999.0 mph 80 % 0 in
06:50 53.4 °F 47.4 °F 30.30 in Calm   -999.0 mph 80 % 0 in
07:05 53.8 °F 47.8 °F 30.31 in Calm   -999.0 mph 80 % 0 in
07:20 53.6 °F 47.2 °F 30.32 in Calm   -999.0 mph 79 % 0 in
07:36 54.0 °F 47.6 °F 30.32 in Calm   -999.0 mph 79 % 0 in
07:51 55.2 °F 48.8 °F 30.32 in Calm   -999.0 mph 79 % 0 in
08:06 55.2 °F 49.1 °F 30.32 in Calm   -999.0 mph 80 % 0 in
08:21 56.3 °F 50.5 °F 30.32 in Calm   -999.0 mph 81 % 0 in
08:36 58.3 °F 51.5 °F 30.32 in Calm   -999.0 mph 78 % 0 in
08:52 61.7 °F 54.8 °F 30.32 in Calm   -999.0 mph 78 % 0 in
09:07 63.3 °F 55.6 °F 30.32 in Calm   -999.0 mph 76 % 0 in
09:22 65.3 °F 54.5 °F 30.32 in NW 1.7 mph -999.0 mph 68 % 0 in
09:37 66.6 °F 52.7 °F 30.32 in Calm   -999.0 mph 61 % 0 in
09:52 70.2 °F 52.8 °F 30.32 in WNW 2.2 mph -999.0 mph 54 % 0 in
10:08 72.1 °F 51.3 °F 30.32 in Calm   -999.0 mph 48 % 0 in
10:23 75.2 °F 46.4 °F 30.32 in Calm   -999.0 mph 36 % 0 in
10:38 77.5 °F 45.3 °F 30.32 in NNW 2.2 mph -999.0 mph 32 % 0 in
10:53 77.9 °F 46.5 °F 30.32 in Calm   -999.0 mph 33 % 0 in
11:08 82.0 °F 46.6 °F 30.32 in NNW 3.2 mph -999.0 mph 29 % 0 in
11:24 79.2 °F 48.4 °F 30.32 in Calm   -999.0 mph 34 % 0 in
11:39 79.2 °F 47.6 °F 30.32 in NW 4.7 mph -999.0 mph 33 % 0 in
11:54 79.9 °F 52.7 °F 30.32 in NNW 4.2 mph -999.0 mph 39 % 0 in
12:09 76.1 °F 52.6 °F 30.31 in NNW 3.2 mph -999.0 mph 44 % 0 in
12:25 77.4 °F 51.9 °F 30.31 in NNW 4.2 mph -999.0 mph 41 % 0 in
12:40 75.2 °F 51.2 °F 30.32 in NW 2.7 mph -999.0 mph 43 % 0 in
12:55 73.4 °F 52.0 °F 30.32 in WNW 1.7 mph -999.0 mph 47 % 0 in
13:26 72.0 °F 54.5 °F 30.32 in NW 1.7 mph -999.0 mph 54 % 0 in
13:41 68.0 °F 58.2 °F 30.32 in Calm   -999.0 mph 71 % 0 in
13:56 68.0 °F 57.9 °F 30.31 in Calm   -999.0 mph 70 % 0 in
14:12 70.9 °F 55.4 °F 30.30 in Calm   -999.0 mph 58 % 0 in
14:27 72.5 °F 53.9 °F 30.30 in Calm   -999.0 mph 52 % 0 in
14:42 76.6 °F 51.8 °F 30.29 in Calm   -999.0 mph 42 % 0 in
14:57 76.5 °F 52.3 °F 30.28 in Calm   -999.0 mph 43 % 0 in
15:12 78.6 °F 52.3 °F 30.27 in Calm   -999.0 mph 40 % 0 in
15:28 78.6 °F 56.1 °F 30.27 in NW 2.2 mph -999.0 mph 46 % 0 in
15:43 77.2 °F 54.2 °F 30.27 in Calm   -999.0 mph 45 % 0 in
15:58 78.3 °F 52.7 °F 30.26 in Calm   -999.0 mph 41 % 0 in
16:13 79.9 °F 50.6 °F 30.26 in Calm   -999.0 mph 36 % 0 in
16:28 79.5 °F 50.2 °F 30.26 in NW 1.1 mph -999.0 mph 36 % 0 in
16:44 81.9 °F 49.2 °F 30.25 in Calm   -999.0 mph 32 % 0 in
16:59 82.8 °F 50.8 °F 30.26 in WNW 2.2 mph -999.0 mph 33 % 0 in
17:14 80.8 °F 49.0 °F 30.26 in Calm   -999.0 mph 33 % 0 in
17:29 79.7 °F 51.1 °F 30.25 in Calm   -999.0 mph 37 % 0 in
17:44 77.7 °F 50.1 °F 30.25 in Calm   -999.0 mph 38 % 0 in
18:00 75.9 °F 49.9 °F 30.25 in Calm   -999.0 mph 40 % 0 in
18:15 73.9 °F 49.4 °F 30.25 in Calm   -999.0 mph 42 % 0 in
18:30 75.4 °F 50.7 °F 30.25 in Calm   -999.0 mph 42 % 0 in
18:45 74.8 °F 52.0 °F 30.27 in Calm   -999.0 mph 45 % 0 in
19:00 72.9 °F 50.9 °F 30.27 in Calm   -999.0 mph 46 % 0 in
19:16 70.7 °F 50.6 °F 30.27 in Calm   -999.0 mph 49 % 0 in
19:31 69.6 °F 51.7 °F 30.27 in Calm   -999.0 mph 53 % 0 in
19:46 68.0 °F 52.2 °F 30.27 in Calm   -999.0 mph 57 % 0 in
20:01 67.1 °F 51.8 °F 30.28 in Calm   -999.0 mph 58 % 0 in
20:17 65.7 °F 51.0 °F 30.28 in Calm   -999.0 mph 59 % 0 in
20:32 64.9 °F 50.7 °F 30.28 in Calm   -999.0 mph 60 % 0 in
20:47 64.0 °F 50.7 °F 30.29 in Calm   -999.0 mph 62 % 0 in
21:02 63.3 °F 50.9 °F 30.29 in Calm   -999.0 mph 64 % 0 in
21:17 62.6 °F 50.7 °F 30.29 in Calm   -999.0 mph 65 % 0 in
21:33 61.9 °F 50.8 °F 30.29 in South 2.2 mph -999.0 mph 67 % 0 in
21:48 61.3 °F 49.8 °F 30.29 in Calm   -999.0 mph 66 % 0 in
22:03 60.8 °F 50.2 °F 30.29 in Calm   -999.0 mph 68 % 0 in
22:19 60.3 °F 49.7 °F 30.29 in Calm   -999.0 mph 68 % 0 in
22:34 59.5 °F 48.5 °F 30.29 in Calm   -999.0 mph 67 % 0 in
22:49 59.0 °F 49.6 °F 30.29 in Calm   -999.0 mph 71 % 0 in
23:04 58.6 °F 49.2 °F 30.30 in Calm   -999.0 mph 71 % 0 in
23:19 58.3 °F 48.9 °F 30.29 in Calm   -999.0 mph 71 % 0 in
23:35 57.9 °F 48.9 °F 30.29 in Calm   -999.0 mph 72 % 0 in
Big Bear CA Weather
Compliments of Weather Underground - 1.5 mb